createdAt,value
2023-02-11T00:01:22.286Z,102291.00
2023-02-11T00:03:50.052Z,102279.00
2023-02-11T00:06:18.293Z,102276.00
2023-02-11T00:08:46.345Z,102271.00
2023-02-11T00:11:15.667Z,102265.00
2023-02-11T00:13:44.025Z,102279.00
2023-02-11T00:16:15.622Z,102292.00
2023-02-11T00:18:43.804Z,102293.00
2023-02-11T00:21:14.471Z,102298.00
2023-02-11T00:23:42.464Z,102277.00
2023-02-11T00:26:13.624Z,102290.00
2023-02-11T00:28:41.583Z,102289.00
2023-02-11T00:31:09.505Z,102296.00
2023-02-11T00:33:38.776Z,102288.00
2023-02-11T00:36:07.547Z,102281.00
2023-02-11T00:38:35.326Z,102288.00
2023-02-11T00:41:03.051Z,102293.00
2023-02-11T00:43:30.878Z,102283.00
2023-02-11T00:45:58.544Z,102301.00
2023-02-11T00:48:26.350Z,102303.00
2023-02-11T00:50:55.700Z,102292.00
2023-02-11T00:53:23.433Z,102294.00
2023-02-11T00:55:52.494Z,102301.00
2023-02-11T00:58:20.421Z,102317.00
2023-02-11T01:00:48.328Z,102310.00
2023-02-11T01:03:16.172Z,102309.00
2023-02-11T01:05:43.961Z,102320.00
2023-02-11T01:08:13.493Z,102316.00
2023-02-11T01:10:41.263Z,102305.00
2023-02-11T01:13:09.018Z,102300.00
2023-02-11T01:15:36.834Z,102293.00
2023-02-11T01:18:06.201Z,102284.00
2023-02-11T01:20:34.323Z,102282.00
2023-02-11T01:23:02.119Z,102285.00
2023-02-11T01:25:31.265Z,102283.00
2023-02-11T01:27:58.982Z,102279.00
2023-02-11T01:30:26.772Z,102252.00
2023-02-11T01:32:54.714Z,102264.00
2023-02-11T01:35:22.464Z,102243.00
2023-02-11T01:37:50.196Z,102250.00
2023-02-11T01:40:18.831Z,102246.00
2023-02-11T01:42:50.914Z,102260.00
2023-02-11T01:45:56.644Z,102249.00
2023-02-11T01:48:28.398Z,102227.00
2023-02-11T01:51:00.921Z,102208.00
2023-02-11T01:53:47.430Z,102206.00
2023-02-11T01:56:33.789Z,102200.00
2023-02-11T01:59:08.709Z,102211.00
2023-02-11T02:01:38.922Z,102199.00
2023-02-11T02:04:08.374Z,102188.00
2023-02-11T02:06:42.044Z,102186.00
2023-02-11T02:09:16.577Z,102178.00
2023-02-11T02:11:44.469Z,102186.00
2023-02-11T02:14:13.538Z,102191.00
2023-02-11T02:16:41.442Z,102193.00
2023-02-11T02:19:33.793Z,102201.00
2023-02-11T02:22:55.690Z,102212.00
2023-02-11T02:25:49.213Z,102200.00
2023-02-11T02:28:35.380Z,102216.00
2023-02-11T02:31:28.223Z,102200.00
2023-02-11T02:34:01.990Z,102204.00
2023-02-11T02:36:36.456Z,102208.00
2023-02-11T02:39:10.096Z,102200.00
2023-02-11T02:41:39.996Z,102206.00
2023-02-11T02:44:08.929Z,102192.00
2023-02-11T02:46:37.644Z,102194.00
2023-02-11T02:49:11.114Z,102189.00
2023-02-11T02:52:01.609Z,102168.00
2023-02-11T02:55:09.190Z,102152.00
2023-02-11T02:57:45.533Z,102168.00
2023-02-11T03:00:20.193Z,102170.00
2023-02-11T03:02:59.347Z,102168.00
2023-02-11T03:05:35.258Z,102171.00
2023-02-11T03:08:09.253Z,102166.00
2023-02-11T03:10:39.404Z,102136.00
2023-02-11T03:13:08.237Z,102153.00
2023-02-11T03:15:39.856Z,102163.00
2023-02-11T03:18:12.889Z,102152.00
2023-02-11T03:20:44.479Z,102150.00
2023-02-11T03:23:14.845Z,102146.00
2023-02-11T03:25:46.867Z,102157.00
2023-02-11T03:28:19.133Z,102152.00
2023-02-11T03:30:50.306Z,102132.00
2023-02-11T03:33:25.139Z,102128.00
2023-02-11T03:35:57.551Z,102128.00
2023-02-11T03:38:30.953Z,102133.00
2023-02-11T03:41:00.115Z,102131.00
2023-02-11T03:43:31.958Z,102116.00
2023-02-11T03:46:04.119Z,102132.00
2023-02-11T03:48:34.023Z,102136.00
2023-02-11T03:51:07.097Z,102141.00
2023-02-11T03:53:34.864Z,102158.00
2023-02-11T03:56:08.797Z,102142.00
2023-02-11T03:58:36.522Z,102160.00
2023-02-11T04:01:05.247Z,102118.00
2023-02-11T04:03:33.477Z,102148.00
2023-02-11T04:06:01.250Z,102162.00
2023-02-11T04:08:31.614Z,102159.00
2023-02-11T04:10:59.728Z,102162.00
2023-02-11T04:13:28.292Z,102174.00
2023-02-11T04:15:56.032Z,102168.00
2023-02-11T04:18:23.746Z,102159.00
2023-02-11T04:20:53.809Z,102156.00
2023-02-11T04:23:21.616Z,102163.00
2023-02-11T04:25:51.761Z,102158.00
2023-02-11T04:28:22.595Z,102156.00
2023-02-11T04:30:50.776Z,102145.00
2023-02-11T04:33:18.687Z,102159.00
2023-02-11T04:35:46.370Z,102153.00
2023-02-11T04:38:14.370Z,102159.00
2023-02-11T04:40:42.256Z,102156.00
2023-02-11T04:43:11.351Z,102159.00
2023-02-11T04:45:39.148Z,102147.00
2023-02-11T04:48:07.199Z,102158.00
2023-02-11T04:50:34.954Z,102160.00
2023-02-11T04:53:02.760Z,102157.00
2023-02-11T04:55:30.527Z,102158.00
2023-02-11T04:57:58.215Z,102167.00
2023-02-11T05:00:27.381Z,102163.00
2023-02-11T05:02:55.094Z,102155.00
2023-02-11T05:05:22.830Z,102150.00
2023-02-11T05:07:50.535Z,102146.00
2023-02-11T05:10:18.410Z,102125.00
2023-02-11T05:12:46.131Z,102147.00
2023-02-11T05:15:13.847Z,102142.00
2023-02-11T05:17:42.931Z,102144.00
2023-02-11T05:20:11.805Z,102126.00
2023-02-11T05:22:40.706Z,102136.00
2023-02-11T05:25:09.191Z,102127.00
2023-02-11T05:27:37.052Z,102149.00
2023-02-11T05:30:05.564Z,102146.00
2023-02-11T05:32:33.673Z,102163.00
2023-02-11T05:35:02.755Z,102138.00
2023-02-11T05:37:30.502Z,102135.00
2023-02-11T05:39:58.182Z,102125.00
2023-02-11T05:42:25.932Z,102135.00
2023-02-11T05:44:53.627Z,102138.00
2023-02-11T05:47:21.363Z,102133.00
2023-02-11T05:49:49.128Z,102140.00
2023-02-11T05:52:18.262Z,102135.00
2023-02-11T05:54:46.101Z,102096.00
2023-02-11T05:57:14.310Z,102142.00
2023-02-11T05:59:42.110Z,102138.00
2023-02-11T06:02:10.360Z,102136.00
2023-02-11T06:04:39.042Z,102132.00
2023-02-11T06:07:06.907Z,102121.00
2023-02-11T06:09:36.015Z,102129.00
2023-02-11T06:12:03.734Z,102131.00
2023-02-11T06:14:33.537Z,102098.00
2023-02-11T06:17:01.292Z,102134.00
2023-02-11T06:19:29.219Z,102129.00
2023-02-11T06:21:56.993Z,102129.00
2023-02-11T06:24:50.916Z,102131.00
2023-02-11T06:27:14.351Z,102137.00
2023-02-11T06:29:42.164Z,102139.00
2023-02-11T06:32:19.555Z,102122.00
2023-02-11T06:34:57.564Z,102132.00
2023-02-11T06:37:25.248Z,102127.00
2023-02-11T06:39:53.348Z,102132.00
2023-02-11T06:42:22.443Z,102133.00
2023-02-11T06:44:50.156Z,102138.00
2023-02-11T06:47:17.905Z,102136.00
2023-02-11T06:49:45.699Z,102136.00
2023-02-11T06:52:13.420Z,102137.00
2023-02-11T06:54:41.108Z,102141.00
2023-02-11T06:57:08.839Z,102147.00
2023-02-11T06:59:38.010Z,102146.00
2023-02-11T07:02:05.855Z,102131.00
2023-02-11T07:04:33.728Z,102144.00
2023-02-11T07:07:01.562Z,102156.00
2023-02-11T07:09:29.343Z,102125.00
2023-02-11T07:11:57.078Z,102143.00
2023-02-11T07:14:24.956Z,102146.00
2023-02-11T07:16:54.066Z,102157.00
2023-02-11T07:19:22.110Z,102135.00
2023-02-11T07:21:49.813Z,102148.00
2023-02-11T07:24:17.592Z,102145.00
2023-02-11T07:26:45.662Z,102143.00
2023-02-11T07:29:13.378Z,102158.00
2023-02-11T07:31:41.341Z,102138.00
2023-02-11T07:34:11.720Z,102136.00
2023-02-11T07:36:39.510Z,102134.00
2023-02-11T07:39:07.460Z,102138.00
2023-02-11T07:41:37.708Z,102165.00
2023-02-11T07:44:06.547Z,102163.00
2023-02-11T07:46:35.699Z,102156.00
2023-02-11T07:49:03.694Z,102175.00
2023-02-11T07:51:32.796Z,102176.00
2023-02-11T07:54:01.109Z,102158.00
2023-02-11T07:56:30.388Z,102171.00
2023-02-11T07:59:03.468Z,102161.00
2023-02-11T08:01:31.986Z,102180.00
2023-02-11T08:04:01.808Z,102158.00
2023-02-11T08:06:33.897Z,102159.00
2023-02-11T08:09:06.537Z,102160.00
2023-02-11T08:11:34.668Z,102140.00
2023-02-11T08:14:02.627Z,102147.00
2023-02-11T08:16:32.497Z,102148.00
2023-02-11T08:19:02.520Z,102145.00
2023-02-11T08:21:30.636Z,102154.00
2023-02-11T08:24:00.143Z,102159.00
2023-02-11T08:26:30.197Z,102170.00
2023-02-11T08:28:59.362Z,102156.00
2023-02-11T08:31:30.019Z,102171.00
2023-02-11T08:33:58.220Z,102184.00
2023-02-11T08:36:29.018Z,102179.00
2023-02-11T08:39:12.204Z,102190.00
2023-02-11T08:41:48.792Z,102196.00
2023-02-11T08:44:16.703Z,102185.00
2023-02-11T08:46:44.436Z,102194.00
2023-02-11T08:49:12.312Z,102201.00
2023-02-11T08:51:40.033Z,102198.00
2023-02-11T08:54:09.832Z,102203.00
2023-02-11T08:56:38.362Z,102209.00
2023-02-11T08:59:09.161Z,102204.00
2023-02-11T09:01:37.050Z,102202.00
2023-02-11T09:04:05.150Z,102211.00
2023-02-11T09:06:33.550Z,102209.00
2023-02-11T09:09:01.433Z,102176.00
2023-02-11T09:11:32.738Z,102210.00
2023-02-11T09:14:00.660Z,102206.00
2023-02-11T09:16:32.320Z,102199.00
2023-02-11T09:19:02.183Z,102217.00
2023-02-11T09:21:30.731Z,102205.00
2023-02-11T09:23:58.877Z,102197.00
2023-02-11T09:26:28.073Z,102212.00
2023-02-11T09:28:56.110Z,102215.00
2023-02-11T09:31:26.181Z,102227.00
2023-02-11T09:33:57.014Z,102225.00
2023-02-11T09:36:26.876Z,102224.00
2023-02-11T09:38:54.835Z,102220.00
2023-02-11T09:41:39.312Z,102242.00
2023-02-11T09:44:08.863Z,102238.00
2023-02-11T09:46:38.794Z,102260.00
2023-02-11T09:49:09.104Z,102240.00
2023-02-11T09:51:43.202Z,102258.00
2023-02-11T09:54:16.505Z,102283.00
2023-02-11T09:56:44.254Z,102274.00
2023-02-11T09:59:14.829Z,102282.00
2023-02-11T10:01:48.268Z,102287.00
2023-02-11T10:04:31.656Z,102251.00
2023-02-11T10:07:08.589Z,102255.00
2023-02-11T10:09:50.424Z,102270.00
2023-02-11T10:12:32.213Z,102279.00
2023-02-11T10:15:16.868Z,102274.00
2023-02-11T10:18:02.898Z,102279.00
2023-02-11T10:20:37.651Z,102288.00
2023-02-11T10:23:14.740Z,102272.00
2023-02-11T10:25:45.774Z,102272.00
2023-02-11T10:28:16.943Z,102281.00
2023-02-11T10:30:58.771Z,102270.00
2023-02-11T10:33:30.401Z,102293.00
2023-02-11T10:35:59.644Z,102285.00
2023-02-11T10:38:28.421Z,102299.00
2023-02-11T10:40:56.220Z,102286.00
2023-02-11T10:43:27.639Z,102276.00
2023-02-11T10:45:57.044Z,102283.00
2023-02-11T10:48:43.602Z,102285.00
2023-02-11T10:51:22.640Z,102289.00
2023-02-11T10:53:52.595Z,102264.00
2023-02-11T10:56:28.377Z,102306.00
2023-02-11T10:58:59.862Z,102268.00
2023-02-11T11:01:44.768Z,102300.00
2023-02-11T11:04:36.481Z,102283.00
2023-02-11T11:07:15.532Z,102290.00
2023-02-11T11:09:55.020Z,102288.00
2023-02-11T11:12:41.847Z,102283.00
2023-02-11T11:15:21.725Z,102291.00
2023-02-11T11:17:50.299Z,102283.00
2023-02-11T11:20:27.238Z,102279.00
2023-02-11T11:23:13.110Z,102287.00
2023-02-11T11:25:43.925Z,102285.00
2023-02-11T11:28:22.785Z,102284.00
2023-02-11T11:30:52.053Z,102282.00
2023-02-11T11:33:22.962Z,102290.00
2023-02-11T11:36:03.497Z,102307.00
2023-02-11T11:38:34.277Z,102295.00
2023-02-11T11:41:21.972Z,102276.00
2023-02-11T11:43:58.136Z,102278.00
2023-02-11T11:46:31.584Z,102295.00
2023-02-11T11:49:24.134Z,102292.00
2023-02-11T11:52:00.783Z,102287.00
2023-02-11T11:54:32.712Z,102265.00
2023-02-11T11:57:04.581Z,102272.00
2023-02-11T11:59:33.318Z,102253.00
2023-02-11T12:02:16.627Z,102298.00
2023-02-11T12:05:00.258Z,102269.00
2023-02-11T12:07:38.875Z,102295.00
2023-02-11T12:10:32.548Z,102270.00
2023-02-11T12:13:10.373Z,102285.00
2023-02-11T12:15:48.273Z,102282.00
2023-02-11T12:18:36.110Z,102243.00
2023-02-11T12:21:16.749Z,102285.00
2023-02-11T12:23:57.274Z,102282.00
2023-02-11T12:26:36.795Z,102277.00
2023-02-11T12:29:14.923Z,102285.00
2023-02-11T12:31:57.552Z,102296.00
2023-02-11T12:34:53.692Z,102308.00
2023-02-11T12:37:33.638Z,102309.00
2023-02-11T12:40:15.770Z,102304.00
2023-02-11T12:43:17.633Z,102315.00
2023-02-11T12:46:02.007Z,102309.00
2023-02-11T12:49:04.242Z,102303.00
2023-02-11T12:51:53.445Z,102308.00
2023-02-11T12:54:29.605Z,102307.00
2023-02-11T12:57:03.152Z,102309.00
2023-02-11T12:59:41.608Z,102288.00
2023-02-11T13:02:19.373Z,102298.00
2023-02-11T13:04:51.677Z,102281.00
2023-02-11T13:07:25.429Z,102295.00
2023-02-11T13:09:59.041Z,102313.00
2023-02-11T13:12:49.605Z,102302.00
2023-02-11T13:15:19.740Z,102300.00
2023-02-11T13:17:56.059Z,102287.00
2023-02-11T13:20:34.503Z,102289.00
2023-02-11T13:23:11.326Z,102301.00
2023-02-11T13:25:44.300Z,102302.00
2023-02-11T13:28:35.989Z,102302.00
2023-02-11T13:31:07.752Z,102311.00
2023-02-11T13:33:37.743Z,102311.00
2023-02-11T13:36:17.944Z,102259.00
2023-02-11T13:39:02.551Z,102305.00
2023-02-11T13:41:33.368Z,102310.00
2023-02-11T13:44:04.925Z,102300.00
2023-02-11T13:46:59.656Z,102322.00
2023-02-11T13:49:32.607Z,102307.00
2023-02-11T13:52:02.420Z,102313.00
2023-02-11T13:54:34.336Z,102318.00
2023-02-11T13:57:34.727Z,102319.00
2023-02-11T14:00:28.476Z,102320.00
2023-02-11T14:03:44.402Z,102315.00
2023-02-11T14:06:33.843Z,102321.00
2023-02-11T14:09:26.330Z,102322.00
2023-02-11T14:11:57.175Z,102332.00
2023-02-11T14:14:26.424Z,102312.00
2023-02-11T14:17:31.904Z,102315.00
2023-02-11T14:20:04.600Z,102323.00
2023-02-11T14:22:45.305Z,102336.00
2023-02-11T14:25:22.935Z,102319.00
2023-02-11T14:27:55.300Z,102331.00
2023-02-11T14:30:33.763Z,102323.00
2023-02-11T14:33:32.469Z,102320.00
2023-02-11T14:36:09.665Z,102332.00
2023-02-11T14:38:48.400Z,102333.00
2023-02-11T14:41:23.972Z,102332.00
2023-02-11T14:43:55.289Z,102336.00
2023-02-11T14:46:24.591Z,102345.00
2023-02-11T14:48:55.716Z,102339.00
2023-02-11T14:51:28.093Z,102308.00
2023-02-11T14:54:00.897Z,102359.00
2023-02-11T14:56:34.279Z,102354.00
2023-02-11T14:59:02.884Z,102325.00
2023-02-11T15:01:33.892Z,102340.00
2023-02-11T15:04:02.881Z,102349.00
2023-02-11T15:06:34.760Z,102358.00
2023-02-11T15:09:07.239Z,102339.00
2023-02-11T15:11:39.985Z,102383.00
2023-02-11T15:14:10.893Z,102367.00
2023-02-11T15:16:43.788Z,102373.00
2023-02-11T15:19:21.380Z,102384.00
2023-02-11T15:21:51.808Z,102390.00
2023-02-11T15:24:25.518Z,102360.00
2023-02-11T15:26:58.286Z,102390.00
2023-02-11T15:29:30.109Z,102355.00
2023-02-11T15:32:13.776Z,102367.00
2023-02-11T15:34:46.878Z,102389.00
2023-02-11T15:37:21.880Z,102361.00
2023-02-11T15:39:50.614Z,102389.00
2023-02-11T15:42:27.791Z,102396.00
2023-02-11T15:45:25.190Z,102368.00
2023-02-11T15:47:55.528Z,102390.00
2023-02-11T15:50:25.921Z,102348.00
2023-02-11T15:52:57.372Z,102374.00
2023-02-11T15:55:30.221Z,102347.00
2023-02-11T15:58:01.003Z,102378.00
2023-02-11T16:00:34.788Z,102369.00
2023-02-11T16:03:03.478Z,102381.00
2023-02-11T16:05:34.736Z,102384.00
2023-02-11T16:08:24.582Z,102378.00
2023-02-11T16:10:58.570Z,102394.00
2023-02-11T16:13:28.300Z,102368.00
2023-02-11T16:16:00.887Z,102387.00
2023-02-11T16:18:38.699Z,102377.00
2023-02-11T16:21:08.793Z,102394.00
2023-02-11T16:23:42.046Z,102390.00
2023-02-11T16:26:21.729Z,102400.00
2023-02-11T16:28:50.195Z,102383.00
2023-02-11T16:31:18.603Z,102396.00
2023-02-11T16:33:46.597Z,102363.00
2023-02-11T16:36:17.113Z,102397.00
2023-02-11T16:38:46.297Z,102403.00
2023-02-11T16:41:14.348Z,102391.00
2023-02-11T16:43:42.092Z,102397.00
2023-02-11T16:46:12.144Z,102403.00
2023-02-11T16:48:39.912Z,102392.00
2023-02-11T16:51:09.660Z,102403.00
2023-02-11T16:53:37.516Z,102397.00
2023-02-11T16:56:07.076Z,102405.00
2023-02-11T16:58:34.878Z,102403.00
2023-02-11T17:01:02.855Z,102403.00
2023-02-11T17:03:35.606Z,102399.00
2023-02-11T17:06:05.656Z,102408.00
2023-02-11T17:08:33.702Z,102398.00
2023-02-11T17:11:01.474Z,102419.00
2023-02-11T17:13:30.660Z,102396.00
2023-02-11T17:15:58.524Z,102415.00
2023-02-11T17:18:26.285Z,102418.00
2023-02-11T17:20:54.023Z,102416.00
2023-02-11T17:23:21.788Z,102424.00
2023-02-11T17:25:56.853Z,102452.00
2023-02-11T17:28:24.648Z,102446.00
2023-02-11T17:30:53.901Z,102445.00
2023-02-11T17:33:21.721Z,102448.00
2023-02-11T17:35:50.078Z,102430.00
2023-02-11T17:38:18.232Z,102419.00
2023-02-11T17:40:46.000Z,102463.00
2023-02-11T17:43:13.818Z,102427.00
2023-02-11T17:45:42.368Z,102451.00
2023-02-11T17:48:11.649Z,102464.00
2023-02-11T17:50:39.529Z,102403.00
2023-02-11T17:53:07.410Z,102416.00
2023-02-11T17:55:35.724Z,102424.00
2023-02-11T17:58:03.594Z,102421.00
2023-02-11T18:00:32.251Z,102477.00
2023-02-11T18:03:02.933Z,102479.00
2023-02-11T18:05:35.524Z,102438.00
2023-02-11T18:08:04.337Z,102458.00
2023-02-11T18:10:33.501Z,102445.00
2023-02-11T18:13:03.368Z,102475.00
2023-02-11T18:15:32.064Z,102470.00
2023-02-11T18:17:59.847Z,102484.00
2023-02-11T18:20:27.686Z,102489.00
2023-02-11T18:22:56.857Z,102498.00
2023-02-11T18:25:24.763Z,102493.00
2023-02-11T18:27:52.738Z,102453.00
2023-02-11T18:30:21.417Z,102513.00
2023-02-11T18:32:49.570Z,102452.00
2023-02-11T18:35:17.720Z,102502.00
2023-02-11T18:37:45.603Z,102459.00
2023-02-11T18:40:15.714Z,102504.00
2023-02-11T18:42:43.960Z,102455.00
2023-02-11T18:45:15.064Z,102488.00
2023-02-11T18:47:42.889Z,102517.00
2023-02-11T18:50:13.825Z,102473.00
2023-02-11T18:52:41.809Z,102469.00
2023-02-11T18:55:10.686Z,102460.00
2023-02-11T18:57:39.901Z,102512.00
2023-02-11T19:00:10.079Z,102513.00
2023-02-11T19:02:38.066Z,102526.00
2023-02-11T19:05:06.837Z,102504.00
2023-02-11T19:07:34.530Z,102497.00
2023-02-11T19:10:02.303Z,102510.00
2023-02-11T19:12:30.076Z,102503.00
2023-02-11T19:15:00.516Z,102525.00
2023-02-11T19:17:28.479Z,102516.00
2023-02-11T19:19:56.211Z,102495.00
2023-02-11T19:22:24.048Z,102524.00
2023-02-11T19:24:53.925Z,102519.00
2023-02-11T19:27:21.708Z,102533.00
2023-02-11T19:29:49.512Z,102536.00
2023-02-11T19:32:18.751Z,102531.00
2023-02-11T19:34:46.524Z,102536.00
2023-02-11T19:37:14.522Z,102539.00
2023-02-11T19:39:42.814Z,102541.00
2023-02-11T19:42:10.793Z,102550.00
2023-02-11T19:44:38.956Z,102560.00
2023-02-11T19:47:07.707Z,102560.00
2023-02-11T19:49:36.990Z,102550.00
2023-02-11T19:52:05.337Z,102555.00
2023-02-11T19:54:33.377Z,102527.00
2023-02-11T19:57:01.357Z,102572.00
2023-02-11T19:59:29.300Z,102551.00
2023-02-11T20:01:58.133Z,102561.00
2023-02-11T20:04:26.146Z,102551.00
2023-02-11T20:06:55.400Z,102555.00
2023-02-11T20:09:23.392Z,102562.00
2023-02-11T20:11:51.883Z,102574.00
2023-02-11T20:14:20.090Z,102544.00
2023-02-11T20:16:49.980Z,102543.00
2023-02-11T20:19:19.955Z,102578.00
2023-02-11T20:21:49.580Z,102590.00
2023-02-11T20:24:19.712Z,102585.00
2023-02-11T20:26:48.711Z,102574.00
2023-02-11T20:29:17.068Z,102577.00
2023-02-11T20:31:45.388Z,102570.00
2023-02-11T20:34:13.410Z,102569.00
2023-02-11T20:36:41.553Z,102569.00
2023-02-11T20:39:11.371Z,102578.00
2023-02-11T20:41:40.778Z,102566.00
2023-02-11T20:44:11.576Z,102575.00
2023-02-11T20:46:41.342Z,102582.00
2023-02-11T20:49:10.871Z,102555.00
2023-02-11T20:51:38.857Z,102591.00
2023-02-11T20:54:07.614Z,102595.00
2023-02-11T20:56:37.537Z,102599.00
2023-02-11T20:59:07.869Z,102604.00
2023-02-11T21:01:36.985Z,102606.00
2023-02-11T21:04:06.566Z,102612.00
2023-02-11T21:06:36.857Z,102607.00
2023-02-11T21:09:05.488Z,102620.00
2023-02-11T21:11:34.179Z,102601.00
2023-02-11T21:14:03.324Z,102622.00
2023-02-11T21:16:33.327Z,102585.00
2023-02-11T21:19:02.802Z,102622.00
2023-02-11T21:21:31.592Z,102640.00
2023-02-11T21:23:59.378Z,102631.00
2023-02-11T21:26:27.315Z,102633.00
2023-02-11T21:28:55.221Z,102632.00
2023-02-11T21:31:24.862Z,102645.00
2023-02-11T21:33:55.085Z,102635.00
2023-02-11T21:36:23.626Z,102656.00
2023-02-11T21:38:52.824Z,102662.00
2023-02-11T21:41:22.650Z,102656.00
2023-02-11T21:43:52.157Z,102652.00
2023-02-11T21:46:20.833Z,102667.00
2023-02-11T21:48:49.452Z,102676.00
2023-02-11T21:51:20.393Z,102662.00
2023-02-11T21:53:48.626Z,102667.00
2023-02-11T21:56:18.577Z,102660.00
2023-02-11T21:58:47.012Z,102645.00
2023-02-11T22:01:16.000Z,102681.00
2023-02-11T22:03:44.448Z,102687.00
2023-02-11T22:06:14.591Z,102681.00
2023-02-11T22:08:43.706Z,102671.00
2023-02-11T22:11:13.104Z,102683.00
2023-02-11T22:13:41.648Z,102691.00
2023-02-11T22:16:12.470Z,102700.00
2023-02-11T22:18:40.499Z,102704.00
2023-02-11T22:21:11.014Z,102701.00
2023-02-11T22:23:40.049Z,102695.00
2023-02-11T22:26:11.416Z,102703.00
2023-02-11T22:28:40.810Z,102665.00
2023-02-11T22:31:12.079Z,102712.00
2023-02-11T22:33:39.957Z,102696.00
2023-02-11T22:36:12.372Z,102706.00
2023-02-11T22:38:40.140Z,102706.00
2023-02-11T22:41:10.814Z,102706.00
2023-02-11T22:43:39.163Z,102709.00
2023-02-11T22:46:08.457Z,102709.00
2023-02-11T22:48:37.002Z,102707.00
2023-02-11T22:51:06.003Z,102705.00
2023-02-11T22:53:33.919Z,102706.00
2023-02-11T22:56:05.907Z,102717.00
2023-02-11T22:58:35.392Z,102720.00
2023-02-11T23:01:03.339Z,102714.00
2023-02-11T23:03:31.238Z,102724.00
2023-02-11T23:05:59.812Z,102723.00
2023-02-11T23:08:28.468Z,102739.00
2023-02-11T23:10:56.408Z,102736.00
2023-02-11T23:13:24.226Z,102710.00
2023-02-11T23:15:55.160Z,102737.00
2023-02-11T23:18:23.261Z,102738.00
2023-02-11T23:20:51.093Z,102741.00
2023-02-11T23:23:18.811Z,102742.00
2023-02-11T23:25:46.554Z,102742.00
2023-02-11T23:28:14.318Z,102746.00
2023-02-11T23:30:42.386Z,102753.00
2023-02-11T23:33:11.482Z,102745.00
2023-02-11T23:35:39.270Z,102756.00
2023-02-11T23:38:07.043Z,102765.00
2023-02-11T23:40:34.820Z,102739.00
2023-02-11T23:43:02.699Z,102738.00
2023-02-11T23:45:31.334Z,102753.00
2023-02-11T23:47:59.159Z,102756.00
2023-02-11T23:50:28.348Z,102762.00
2023-02-11T23:52:56.144Z,102766.00
2023-02-11T23:55:23.923Z,102732.00
2023-02-11T23:57:51.684Z,102764.00
